Airfield :







YOU CAN JOIN US ON...

 
LOGIN :

Register | Disclaimer

   EN    FR    IT 

 









Legend :    VFR   Marginal VFR   IFR   Intensive IFR   Very Intensive IFR
Visi :
Ceiling :
>= 8 km
>= 3000ft
5 to 8 km
1000 to 3000 ft
1500m to 5 km
500 to 1000 ft
800 to 1500m
200 to 500 ft
< 800m
< 200 ft
Symbols :   Thunderstorms  Fog  Heavy snow  Heavy precipitations  Wind > 20 kt






- Airport Elevation : 198 ft
- IATA code : STM


SBSN - Maestro Wilson Fonseca Int.

CURRENT METAR :
  • 252300Z 12004KT 9999 SCT017 27/25 Q1008

EXPIRED METARs :
  • 252200Z 09005KT 9999 SCT020 29/25 Q1008
  • 252100Z 09004KT 9999 SCT020 30/25 Q1007

TAF TAF SBSN
Valid from the 26 at 00:00 until the 27 at 00:00 UTC


252100Z 2600/2624 12005KT 9999 SCT015 TN24/2609Z TX29/2617Z
PROB30 2602/2605 5000 TSRA BKN015 FEW025CB
BECMG 2606/2608 01005KT SCT015
BECMG 2614/2616 07005KT SCT026 FEW025TCU
BECMG 2619/2621 08005KT SCT017 FEW030TCU
BECMG 2622/2624 18005KT RMK PGY



MET'MAP, your aeronautical weather chart ! - Copyright ORBIFLY December 2007 - Disclaimer

ORBIFLY MET'MAP TEAM :

Programming & Development : Alexandra Zaïnal
Concept & original design : Baudouin d'Aumeries
Assistance for programming : Marc-Olivier Méhu
Technical & hardware support : Manuel Goepfert

Contact : metmap@orbifly.com




SOURCES & CREDITS :

   NOAA